ISL weather

Atatürk International Airport
Istanbul, İstanbul Province, Turkey

Public forecast

Using degrees Celsius for public forecast. Weather courtesy of forecast.io.

Current aviation weather report (METAR) for Atatürk International Airport

Retrieved 2019/10/21 23:20 UTC (24 minutes ago):

LTBA 212320Z 02008KT CAVOK 17/14 Q1022 NOSIG RMK RWY17L 02008KT RWY05 01008KT RWY23 02008KT

Aviation forecast (TAF) for Atatürk International Airport

Retrieved 2019/10/21 18:03 UTC (6 hours ago):

TAF LTBA 211640Z 2118/2224 03010KT 9999 SCT025 BECMG 2120/2124 FEW012 BKN022 BECMG 2209/2213 SCT032 TEMPO 2213/2217 04015G25KT BECMG 2217/2220 FEW012 BKN022